Mataranka, Australia
Current Conditions -  °F | °C
As of 9:00 AM on Saturday 20 Dec 2014 (Local Time) from YPTN Reporting Station
Broken Clouds Broken Clouds  
Wind Chill: 84°   Ceiling: 10000
Heat Index: 92°   Visibility: 6mi
Dew Point: 75°   Wind: 1mph
Humidity: 74%   Direction: 310°NW
Pressure: 29.85"   Gusts: NA
Location:  14.93°S, 133.07°E
Report Text: YPTN 200000Z AUTO 31001KT 9999 // SCT012 BKN100 29/24 Q1011
Loading
Personal Weather Stations






























Interactive Weather Map New forecast layout! Learn more

10-Day Weather Forecast

Advertisements
Track Severe Weather on mobile